sensor_id;sensor_type;location;lat;lon;timestamp;P1;durP1;ratioP1;P2;durP2;ratioP2
13753;SDS011;6948;51.216;6.778;2023-04-20T13:54:12;4.50;;;4.07;;
13753;SDS011;6948;51.216;6.778;2023-04-20T13:56:38;5.93;;;4.60;;
13753;SDS011;6948;51.216;6.778;2023-04-20T13:59:04;6.20;;;4.60;;
13753;SDS011;6948;51.216;6.778;2023-04-20T14:01:30;5.87;;;4.47;;
13753;SDS011;6948;51.216;6.778;2023-04-20T14:03:56;4.90;;;4.40;;
13753;SDS011;6948;51.216;6.778;2023-04-20T14:06:21;5.03;;;4.57;;
13753;SDS011;6948;51.216;6.778;2023-04-20T14:08:47;7.03;;;4.90;;
13753;SDS011;6948;51.216;6.778;2023-04-20T14:11:13;5.03;;;4.50;;
13753;SDS011;6948;51.216;6.778;2023-04-20T14:13:39;5.30;;;4.40;;
13753;SDS011;6948;51.216;6.778;2023-04-20T14:16:06;4.70;;;4.20;;
13753;SDS011;6948;51.216;6.778;2023-04-20T14:18:33;5.13;;;4.50;;
13753;SDS011;6948;51.216;6.778;2023-04-20T14:20:59;4.67;;;4.07;;
13753;SDS011;6948;51.216;6.778;2023-04-20T14:23:25;6.37;;;4.40;;
13753;SDS011;6948;51.216;6.778;2023-04-20T14:25:51;5.90;;;4.20;;
13753;SDS011;6948;51.216;6.778;2023-04-20T14:28:16;6.10;;;4.60;;
13753;SDS011;6948;51.216;6.778;2023-04-20T14:30:43;4.43;;;4.03;;
13753;SDS011;6948;51.216;6.778;2023-04-20T14:33:10;5.03;;;4.23;;
13753;SDS011;6948;51.216;6.778;2023-04-20T14:35:36;5.87;;;4.53;;
13753;SDS011;6948;51.216;6.778;2023-04-20T14:48:09;5.53;;;4.63;;
13753;SDS011;6948;51.216;6.778;2023-04-20T14:50:34;7.27;;;4.60;;
13753;SDS011;6948;51.216;6.778;2023-04-20T14:53:00;4.93;;;4.40;;
13753;SDS011;6948;51.216;6.778;2023-04-20T14:55:26;5.47;;;4.50;;
13753;SDS011;6948;51.216;6.778;2023-04-20T14:57:53;5.07;;;4.57;;
13753;SDS011;6948;51.216;6.778;2023-04-20T15:00:20;7.17;;;5.33;;
13753;SDS011;6948;51.216;6.778;2023-04-20T15:02:47;6.13;;;5.03;;
13753;SDS011;6948;51.216;6.778;2023-04-20T15:05:13;5.47;;;4.33;;
13753;SDS011;6948;51.216;6.778;2023-04-20T15:07:39;5.87;;;5.13;;
13753;SDS011;6948;51.216;6.778;2023-04-20T15:10:05;5.67;;;4.70;;
13753;SDS011;6948;51.216;6.778;2023-04-20T15:12:31;5.80;;;5.23;;
13753;SDS011;6948;51.216;6.778;2023-04-20T15:14:57;5.83;;;5.20;;
13753;SDS011;6948;51.216;6.778;2023-04-20T15:17:22;5.90;;;5.30;;
13753;SDS011;6948;51.216;6.778;2023-04-20T15:19:48;6.33;;;5.33;;
13753;SDS011;6948;51.216;6.778;2023-04-20T15:22:14;6.10;;;4.83;;
13753;SDS011;6948;51.216;6.778;2023-04-20T15:24:39;7.27;;;4.77;;
13753;SDS011;6948;51.216;6.778;2023-04-20T15:27:05;6.10;;;4.80;;
13753;SDS011;6948;51.216;6.778;2023-04-20T15:29:31;5.70;;;5.20;;
13753;SDS011;6948;51.216;6.778;2023-04-20T15:31:57;6.60;;;5.53;;
13753;SDS011;6948;51.216;6.778;2023-04-20T15:34:23;6.90;;;5.57;;
13753;SDS011;6948;51.216;6.778;2023-04-20T15:36:49;6.80;;;6.07;;
13753;SDS011;6948;51.216;6.778;2023-04-20T15:39:15;6.47;;;5.87;;
13753;SDS011;6948;51.216;6.778;2023-04-20T15:41:40;5.87;;;5.37;;
13753;SDS011;6948;51.216;6.778;2023-04-20T15:44:06;5.40;;;4.90;;
13753;SDS011;6948;51.216;6.778;2023-04-20T15:46:32;6.00;;;5.03;;
13753;SDS011;6948;51.216;6.778;2023-04-20T15:48:57;6.50;;;4.90;;
13753;SDS011;6948;51.216;6.778;2023-04-20T15:51:23;5.13;;;4.63;;
13753;SDS011;6948;51.216;6.778;2023-04-20T15:53:49;7.87;;;4.30;;
13753;SDS011;6948;51.216;6.778;2023-04-20T15:56:16;6.47;;;5.63;;
13753;SDS011;6948;51.216;6.778;2023-04-20T15:58:45;6.77;;;6.07;;
13753;SDS011;6948;51.216;6.778;2023-04-20T16:01:13;6.70;;;5.70;;
13753;SDS011;6948;51.216;6.778;2023-04-20T16:03:39;7.00;;;6.20;;
13753;SDS011;6948;51.216;6.778;2023-04-20T16:06:05;7.97;;;6.80;;
13753;SDS011;6948;51.216;6.778;2023-04-20T16:08:31;7.27;;;6.57;;
13753;SDS011;6948;51.216;6.778;2023-04-20T16:10:57;7.77;;;6.90;;
13753;SDS011;6948;51.216;6.778;2023-04-20T16:13:23;7.53;;;6.83;;
13753;SDS011;6948;51.216;6.778;2023-04-20T16:15:50;8.63;;;6.20;;
13753;SDS011;6948;51.216;6.778;2023-04-20T16:18:16;8.37;;;6.23;;
13753;SDS011;6948;51.216;6.778;2023-04-20T16:20:42;8.97;;;5.90;;
13753;SDS011;6948;51.216;6.778;2023-04-20T16:23:08;7.00;;;6.27;;
13753;SDS011;6948;51.216;6.778;2023-04-20T16:25:33;6.93;;;6.17;;
13753;SDS011;6948;51.216;6.778;2023-04-20T16:28:00;6.27;;;5.53;;
13753;SDS011;6948;51.216;6.778;2023-04-20T16:30:26;9.43;;;6.60;;
13753;SDS011;6948;51.216;6.778;2023-04-20T16:32:52;7.60;;;6.60;;
13753;SDS011;6948;51.216;6.778;2023-04-20T16:35:17;6.93;;;6.23;;
13753;SDS011;6948;51.216;6.778;2023-04-20T16:37:43;8.07;;;6.37;;
13753;SDS011;6948;51.216;6.778;2023-04-20T16:40:09;9.90;;;6.80;;
13753;SDS011;6948;51.216;6.778;2023-04-20T16:42:35;7.73;;;6.87;;
13753;SDS011;6948;51.216;6.778;2023-04-20T16:45:01;7.77;;;6.23;;
13753;SDS011;6948;51.216;6.778;2023-04-20T16:47:28;7.87;;;6.93;;
13753;SDS011;6948;51.216;6.778;2023-04-20T16:49:53;6.63;;;6.03;;
13753;SDS011;6948;51.216;6.778;2023-04-20T16:52:19;6.97;;;5.90;;
13753;SDS011;6948;51.216;6.778;2023-04-20T16:54:45;7.13;;;6.43;;
13753;SDS011;6948;51.216;6.778;2023-04-20T16:57:11;7.83;;;6.50;;
13753;SDS011;6948;51.216;6.778;2023-04-20T16:59:36;6.70;;;6.00;;
13753;SDS011;6948;51.216;6.778;2023-04-20T17:02:02;7.77;;;5.70;;
13753;SDS011;6948;51.216;6.778;2023-04-20T17:04:28;6.70;;;6.00;;
13753;SDS011;6948;51.216;6.778;2023-04-20T17:06:54;7.10;;;6.17;;
13753;SDS011;6948;51.216;6.778;2023-04-20T17:09:21;7.50;;;6.40;;
13753;SDS011;6948;51.216;6.778;2023-04-20T17:11:46;9.33;;;6.20;;
13753;SDS011;6948;51.216;6.778;2023-04-20T17:14:12;21.17;;;11.03;;
13753;SDS011;6948;51.216;6.778;2023-04-20T17:16:38;13.90;;;6.83;;
13753;SDS011;6948;51.216;6.778;2023-04-20T17:19:03;7.27;;;6.07;;
13753;SDS011;6948;51.216;6.778;2023-04-20T17:21:29;6.70;;;6.10;;
13753;SDS011;6948;51.216;6.778;2023-04-20T17:23:55;9.90;;;6.87;;
13753;SDS011;6948;51.216;6.778;2023-04-20T17:26:21;7.20;;;6.50;;
13753;SDS011;6948;51.216;6.778;2023-04-20T17:28:46;7.33;;;6.17;;
13753;SDS011;6948;51.216;6.778;2023-04-20T17:31:12;6.83;;;6.13;;
13753;SDS011;6948;51.216;6.778;2023-04-20T17:33:38;6.77;;;6.17;;
13753;SDS011;6948;51.216;6.778;2023-04-20T17:36:03;5.80;;;5.30;;
13753;SDS011;6948;51.216;6.778;2023-04-20T17:38:29;6.33;;;5.73;;
13753;SDS011;6948;51.216;6.778;2023-04-20T17:41:00;5.50;;;5.00;;
13753;SDS011;6948;51.216;6.778;2023-04-20T17:43:26;6.30;;;5.13;;
13753;SDS011;6948;51.216;6.778;2023-04-20T17:45:52;7.03;;;5.53;;
13753;SDS011;6948;51.216;6.778;2023-04-20T17:48:18;8.30;;;6.10;;
13753;SDS011;6948;51.216;6.778;2023-04-20T17:50:51;6.47;;;5.87;;
13753;SDS011;6948;51.216;6.778;2023-04-20T17:53:16;6.00;;;5.50;;
13753;SDS011;6948;51.216;6.778;2023-04-20T17:55:42;5.87;;;5.37;;
13753;SDS011;6948;51.216;6.778;2023-04-20T17:58:08;6.70;;;5.70;;
13753;SDS011;6948;51.216;6.778;2023-04-20T18:00:33;6.20;;;5.60;;
13753;SDS011;6948;51.216;6.778;2023-04-20T18:02:59;6.07;;;5.43;;
13753;SDS011;6948;51.216;6.778;2023-04-20T18:05:25;6.17;;;5.57;;
13753;SDS011;6948;51.216;6.778;2023-04-20T18:07:51;6.00;;;5.50;;
13753;SDS011;6948;51.216;6.778;2023-04-20T18:10:16;6.77;;;5.63;;
13753;SDS011;6948;51.216;6.778;2023-04-20T18:12:42;5.97;;;5.33;;
13753;SDS011;6948;51.216;6.778;2023-04-20T18:15:09;8.03;;;5.30;;
13753;SDS011;6948;51.216;6.778;2023-04-20T18:17:35;6.50;;;5.60;;
13753;SDS011;6948;51.216;6.778;2023-04-20T18:20:01;6.13;;;5.30;;
13753;SDS011;6948;51.216;6.778;2023-04-20T18:22:29;7.27;;;5.40;;
13753;SDS011;6948;51.216;6.778;2023-04-20T18:24:56;7.87;;;5.57;;
13753;SDS011;6948;51.216;6.778;2023-04-20T18:27:22;5.67;;;5.13;;
13753;SDS011;6948;51.216;6.778;2023-04-20T18:29:48;6.20;;;5.57;;
13753;SDS011;6948;51.216;6.778;2023-04-20T18:32:14;6.70;;;6.00;;
13753;SDS011;6948;51.216;6.778;2023-04-20T18:34:41;6.90;;;5.83;;
13753;SDS011;6948;51.216;6.778;2023-04-20T18:37:07;6.77;;;6.03;;
13753;SDS011;6948;51.216;6.778;2023-04-20T18:39:34;7.30;;;6.27;;
13753;SDS011;6948;51.216;6.778;2023-04-20T18:42:00;6.83;;;6.23;;
13753;SDS011;6948;51.216;6.778;2023-04-20T18:44:26;7.57;;;6.87;;
13753;SDS011;6948;51.216;6.778;2023-04-20T18:46:53;7.63;;;6.93;;
13753;SDS011;6948;51.216;6.778;2023-04-20T18:49:18;7.40;;;6.70;;
13753;SDS011;6948;51.216;6.778;2023-04-20T18:51:44;8.17;;;7.47;;
13753;SDS011;6948;51.216;6.778;2023-04-20T18:54:10;7.83;;;7.17;;
13753;SDS011;6948;51.216;6.778;2023-04-20T18:56:35;7.47;;;6.60;;
13753;SDS011;6948;51.216;6.778;2023-04-20T18:59:02;7.47;;;6.77;;
13753;SDS011;6948;51.216;6.778;2023-04-20T19:01:28;7.60;;;6.40;;
13753;SDS011;6948;51.216;6.778;2023-04-20T19:03:56;7.27;;;6.60;;
13753;SDS011;6948;51.216;6.778;2023-04-20T19:06:22;6.87;;;6.20;;
13753;SDS011;6948;51.216;6.778;2023-04-20T19:08:48;7.53;;;6.80;;
13753;SDS011;6948;51.216;6.778;2023-04-20T19:11:14;7.73;;;6.90;;
13753;SDS011;6948;51.216;6.778;2023-04-20T19:13:40;8.30;;;7.40;;
13753;SDS011;6948;51.216;6.778;2023-04-20T19:16:09;10.60;;;8.67;;
13753;SDS011;6948;51.216;6.778;2023-04-20T19:18:36;8.67;;;7.77;;
13753;SDS011;6948;51.216;6.778;2023-04-20T19:21:02;8.27;;;7.53;;
13753;SDS011;6948;51.216;6.778;2023-04-20T19:23:28;7.33;;;6.47;;
13753;SDS011;6948;51.216;6.778;2023-04-20T19:25:53;7.60;;;6.90;;
13753;SDS011;6948;51.216;6.778;2023-04-20T19:28:19;8.67;;;7.07;;
13753;SDS011;6948;51.216;6.778;2023-04-20T19:30:45;7.07;;;6.30;;
13753;SDS011;6948;51.216;6.778;2023-04-20T19:33:11;6.90;;;6.30;;
13753;SDS011;6948;51.216;6.778;2023-04-20T19:35:36;6.67;;;6.07;;
13753;SDS011;6948;51.216;6.778;2023-04-20T19:38:02;7.87;;;6.70;;
13753;SDS011;6948;51.216;6.778;2023-04-20T19:40:28;7.33;;;6.67;;
13753;SDS011;6948;51.216;6.778;2023-04-20T19:42:53;6.90;;;6.20;;
13753;SDS011;6948;51.216;6.778;2023-04-20T19:45:19;6.63;;;6.03;;
13753;SDS011;6948;51.216;6.778;2023-04-20T19:47:45;7.03;;;6.33;;
13753;SDS011;6948;51.216;6.778;2023-04-20T19:50:11;6.80;;;6.20;;
13753;SDS011;6948;51.216;6.778;2023-04-20T19:52:37;6.80;;;6.20;;
13753;SDS011;6948;51.216;6.778;2023-04-20T19:55:04;7.73;;;7.03;;
13753;SDS011;6948;51.216;6.778;2023-04-20T19:57:30;6.73;;;6.13;;
13753;SDS011;6948;51.216;6.778;2023-04-20T19:59:56;7.53;;;6.73;;
13753;SDS011;6948;51.216;6.778;2023-04-20T20:02:21;7.40;;;6.80;;
13753;SDS011;6948;51.216;6.778;2023-04-20T20:04:47;7.80;;;7.10;;
13753;SDS011;6948;51.216;6.778;2023-04-20T20:07:13;8.40;;;7.60;;
13753;SDS011;6948;51.216;6.778;2023-04-20T20:09:39;8.37;;;7.57;;
13753;SDS011;6948;51.216;6.778;2023-04-20T20:12:05;8.73;;;8.03;;
13753;SDS011;6948;51.216;6.778;2023-04-20T20:14:34;8.93;;;8.03;;
13753;SDS011;6948;51.216;6.778;2023-04-20T20:17:00;8.90;;;8.10;;
13753;SDS011;6948;51.216;6.778;2023-04-20T20:19:25;8.43;;;7.73;;
13753;SDS011;6948;51.216;6.778;2023-04-20T20:21:52;8.97;;;8.17;;
13753;SDS011;6948;51.216;6.778;2023-04-20T20:24:17;9.07;;;8.27;;
13753;SDS011;6948;51.216;6.778;2023-04-20T20:26:44;9.37;;;8.47;;
13753;SDS011;6948;51.216;6.778;2023-04-20T20:29:10;9.70;;;8.90;;
13753;SDS011;6948;51.216;6.778;2023-04-20T20:31:36;9.90;;;9.00;;
13753;SDS011;6948;51.216;6.778;2023-04-20T20:34:01;10.93;;;9.23;;
13753;SDS011;6948;51.216;6.778;2023-04-20T20:36:27;10.47;;;9.57;;
13753;SDS011;6948;51.216;6.778;2023-04-20T20:38:56;10.47;;;9.63;;
13753;SDS011;6948;51.216;6.778;2023-04-20T20:41:21;11.57;;;10.50;;
13753;SDS011;6948;51.216;6.778;2023-04-20T20:43:47;11.83;;;10.77;;
13753;SDS011;6948;51.216;6.778;2023-04-20T20:46:14;12.93;;;11.70;;
13753;SDS011;6948;51.216;6.778;2023-04-20T20:48:40;13.67;;;12.37;;
13753;SDS011;6948;51.216;6.778;2023-04-20T20:51:06;14.37;;;12.87;;
13753;SDS011;6948;51.216;6.778;2023-04-20T20:53:31;13.77;;;12.50;;
13753;SDS011;6948;51.216;6.778;2023-04-20T20:55:57;15.03;;;13.63;;
13753;SDS011;6948;51.216;6.778;2023-04-20T20:58:23;14.80;;;13.50;;
13753;SDS011;6948;51.216;6.778;2023-04-20T21:00:48;16.23;;;14.73;;
13753;SDS011;6948;51.216;6.778;2023-04-20T21:03:14;16.37;;;14.87;;
13753;SDS011;6948;51.216;6.778;2023-04-20T21:05:40;16.33;;;14.83;;
13753;SDS011;6948;51.216;6.778;2023-04-20T21:08:06;17.03;;;15.47;;
13753;SDS011;6948;51.216;6.778;2023-04-20T21:10:34;18.13;;;16.40;;
13753;SDS011;6948;51.216;6.778;2023-04-20T21:13:00;18.87;;;17.27;;
13753;SDS011;6948;51.216;6.778;2023-04-20T21:15:25;19.67;;;17.77;;
13753;SDS011;6948;51.216;6.778;2023-04-20T21:17:51;20.13;;;18.33;;
13753;SDS011;6948;51.216;6.778;2023-04-20T21:20:17;20.13;;;18.30;;
13753;SDS011;6948;51.216;6.778;2023-04-20T21:22:42;20.13;;;18.03;;
13753;SDS011;6948;51.216;6.778;2023-04-20T21:25:08;21.90;;;20.00;;
13753;SDS011;6948;51.216;6.778;2023-04-20T21:27:34;21.73;;;19.83;;
13753;SDS011;6948;51.216;6.778;2023-04-20T21:29:59;21.00;;;19.03;;
13753;SDS011;6948;51.216;6.778;2023-04-20T21:32:25;21.37;;;19.37;;
13753;SDS011;6948;51.216;6.778;2023-04-20T21:34:51;22.77;;;20.57;;
13753;SDS011;6948;51.216;6.778;2023-04-20T21:37:17;23.83;;;21.53;;
13753;SDS011;6948;51.216;6.778;2023-04-20T21:39:42;21.73;;;19.80;;
13753;SDS011;6948;51.216;6.778;2023-04-20T21:42:08;22.13;;;20.13;;
13753;SDS011;6948;51.216;6.778;2023-04-20T21:44:34;23.90;;;21.60;;
13753;SDS011;6948;51.216;6.778;2023-04-20T21:47:00;23.47;;;21.37;;
13753;SDS011;6948;51.216;6.778;2023-04-20T21:49:26;25.27;;;23.03;;
13753;SDS011;6948;51.216;6.778;2023-04-20T21:51:52;23.83;;;21.63;;
13753;SDS011;6948;51.216;6.778;2023-04-20T21:54:18;24.30;;;21.97;;
13753;SDS011;6948;51.216;6.778;2023-04-20T21:56:44;23.93;;;21.63;;
13753;SDS011;6948;51.216;6.778;2023-04-20T21:59:10;25.50;;;23.30;;
13753;SDS011;6948;51.216;6.778;2023-04-20T22:01:36;24.93;;;22.73;;
13753;SDS011;6948;51.216;6.778;2023-04-20T22:04:02;23.90;;;21.70;;
13753;SDS011;6948;51.216;6.778;2023-04-20T22:06:28;24.07;;;21.83;;
13753;SDS011;6948;51.216;6.778;2023-04-20T22:08:55;25.60;;;23.30;;
13753;SDS011;6948;51.216;6.778;2023-04-20T22:11:22;24.93;;;22.63;;
13753;SDS011;6948;51.216;6.778;2023-04-20T22:13:47;24.47;;;22.30;;
13753;SDS011;6948;51.216;6.778;2023-04-20T22:16:13;24.80;;;22.50;;
13753;SDS011;6948;51.216;6.778;2023-04-20T22:18:39;26.40;;;23.90;;
13753;SDS011;6948;51.216;6.778;2023-04-20T22:21:06;26.50;;;24.00;;
13753;SDS011;6948;51.216;6.778;2023-04-20T22:23:31;25.47;;;23.17;;
13753;SDS011;6948;51.216;6.778;2023-04-20T22:25:57;26.63;;;24.23;;
13753;SDS011;6948;51.216;6.778;2023-04-20T22:28:23;27.50;;;25.00;;
13753;SDS011;6948;51.216;6.778;2023-04-20T22:30:48;25.90;;;23.50;;
13753;SDS011;6948;51.216;6.778;2023-04-20T22:33:14;24.67;;;22.37;;
13753;SDS011;6948;51.216;6.778;2023-04-20T22:35:40;25.13;;;22.93;;
13753;SDS011;6948;51.216;6.778;2023-04-20T22:38:06;25.07;;;22.77;;
13753;SDS011;6948;51.216;6.778;2023-04-20T22:40:32;26.20;;;23.77;;
13753;SDS011;6948;51.216;6.778;2023-04-20T22:42:58;24.97;;;22.77;;
13753;SDS011;6948;51.216;6.778;2023-04-20T22:45:23;26.40;;;23.93;;
13753;SDS011;6948;51.216;6.778;2023-04-20T22:47:49;25.47;;;23.17;;
13753;SDS011;6948;51.216;6.778;2023-04-20T22:50:15;25.23;;;22.93;;
13753;SDS011;6948;51.216;6.778;2023-04-20T22:52:41;24.00;;;21.83;;
13753;SDS011;6948;51.216;6.778;2023-04-20T22:55:07;23.80;;;21.70;;
13753;SDS011;6948;51.216;6.778;2023-04-20T22:57:34;24.07;;;21.87;;
13753;SDS011;6948;51.216;6.778;2023-04-20T23:00:04;25.30;;;23.10;;
13753;SDS011;6948;51.216;6.778;2023-04-20T23:02:34;25.50;;;23.10;;
13753;SDS011;6948;51.216;6.778;2023-04-20T23:05:00;27.30;;;24.80;;
13753;SDS011;6948;51.216;6.778;2023-04-20T23:07:27;27.00;;;24.37;;
13753;SDS011;6948;51.216;6.778;2023-04-20T23:09:52;26.37;;;23.93;;
13753;SDS011;6948;51.216;6.778;2023-04-20T23:12:20;26.27;;;23.87;;
13753;SDS011;6948;51.216;6.778;2023-04-20T23:14:46;27.87;;;25.37;;
13753;SDS011;6948;51.216;6.778;2023-04-20T23:17:12;27.90;;;25.47;;
13753;SDS011;6948;51.216;6.778;2023-04-20T23:19:37;27.17;;;24.60;;
13753;SDS011;6948;51.216;6.778;2023-04-20T23:22:04;27.37;;;24.77;;
13753;SDS011;6948;51.216;6.778;2023-04-20T23:24:32;27.43;;;24.83;;
13753;SDS011;6948;51.216;6.778;2023-04-20T23:26:58;28.37;;;25.67;;
13753;SDS011;6948;51.216;6.778;2023-04-20T23:29:24;29.47;;;26.53;;
13753;SDS011;6948;51.216;6.778;2023-04-20T23:31:52;30.83;;;27.83;;
13753;SDS011;6948;51.216;6.778;2023-04-20T23:34:18;31.33;;;28.57;;
13753;SDS011;6948;51.216;6.778;2023-04-20T23:36:44;30.97;;;28.10;;
13753;SDS011;6948;51.216;6.778;2023-04-20T23:39:09;29.57;;;26.93;;
13753;SDS011;6948;51.216;6.778;2023-04-20T23:41:35;31.13;;;28.30;;
13753;SDS011;6948;51.216;6.778;2023-04-20T23:44:01;31.13;;;28.23;;
13753;SDS011;6948;51.216;6.778;2023-04-20T23:46:26;30.40;;;27.53;;
13753;SDS011;6948;51.216;6.778;2023-04-20T23:48:52;29.87;;;27.10;;
13753;SDS011;6948;51.216;6.778;2023-04-20T23:51:19;29.87;;;27.07;;
13753;SDS011;6948;51.216;6.778;2023-04-20T23:53:45;29.73;;;26.80;;
13753;SDS011;6948;51.216;6.778;2023-04-20T23:56:11;29.37;;;26.57;;
13753;SDS011;6948;51.216;6.778;2023-04-20T23:58:36;29.50;;;26.60;;
